createdAt,value
2023-03-26T00:01:39.233Z,12.45
2023-03-26T00:04:08.159Z,9.85
2023-03-26T00:06:40.111Z,14.25
2023-03-26T00:09:10.437Z,11.75
2023-03-26T00:11:38.593Z,11.85
2023-03-26T00:14:06.402Z,11.85
2023-03-26T00:16:34.262Z,12.95
2023-03-26T00:19:02.722Z,9.93
2023-03-26T00:21:31.578Z,8.75
2023-03-26T00:24:09.578Z,11.13
2023-03-26T00:26:38.712Z,10.60
2023-03-26T00:29:08.402Z,9.43
2023-03-26T00:31:39.914Z,7.50
2023-03-26T00:34:08.701Z,9.45
2023-03-26T00:36:36.613Z,8.43
2023-03-26T00:39:06.098Z,6.32
2023-03-26T00:41:37.413Z,6.63
2023-03-26T00:44:05.937Z,9.88
2023-03-26T00:46:33.740Z,7.65
2023-03-26T00:49:03.945Z,6.15
2023-03-26T00:51:34.213Z,7.03
2023-03-26T00:54:02.383Z,8.75
2023-03-26T00:56:30.179Z,8.57
2023-03-26T00:59:00.337Z,7.60
2023-03-26T01:01:30.659Z,10.68
2023-03-26T01:04:19.245Z,7.80
2023-03-26T01:06:47.068Z,7.70
2023-03-26T01:09:19.197Z,7.63
2023-03-26T01:11:48.975Z,9.43
2023-03-26T01:14:20.656Z,7.63
2023-03-26T01:16:52.822Z,7.22
2023-03-26T01:19:54.692Z,6.90
2023-03-26T01:22:27.497Z,6.90
2023-03-26T01:24:56.720Z,7.95
2023-03-26T01:27:28.385Z,8.30
2023-03-26T01:30:12.747Z,7.50
2023-03-26T01:33:00.771Z,7.45
2023-03-26T01:35:43.067Z,8.48
2023-03-26T01:38:23.382Z,8.10
2023-03-26T01:41:09.798Z,6.95
2023-03-26T01:43:56.498Z,7.32
2023-03-26T01:46:25.947Z,6.40
2023-03-26T01:48:55.610Z,7.13
2023-03-26T01:51:33.515Z,10.00
2023-03-26T01:54:06.273Z,8.82
2023-03-26T01:56:45.103Z,6.45
2023-03-26T01:59:31.461Z,7.30
2023-03-26T02:02:08.106Z,8.80
2023-03-26T02:04:42.328Z,7.20
2023-03-26T02:07:28.853Z,7.47
2023-03-26T02:10:06.674Z,6.15
2023-03-26T02:12:35.624Z,9.25
2023-03-26T02:15:03.654Z,7.50
2023-03-26T02:17:33.282Z,6.97
2023-03-26T02:20:11.075Z,5.95
2023-03-26T02:22:41.164Z,5.13
2023-03-26T02:25:13.005Z,5.47
2023-03-26T02:27:41.440Z,8.50
2023-03-26T02:30:17.250Z,7.28
2023-03-26T02:32:47.840Z,7.53
2023-03-26T02:35:15.948Z,6.38
2023-03-26T02:37:48.220Z,6.38
2023-03-26T02:40:21.263Z,6.32
2023-03-26T02:42:50.061Z,6.40
2023-03-26T02:45:18.242Z,7.32
2023-03-26T02:47:52.339Z,6.38
2023-03-26T02:50:46.377Z,5.95
2023-03-26T02:53:42.132Z,4.35
2023-03-26T02:56:41.240Z,9.00
2023-03-26T02:59:23.579Z,6.90
2023-03-26T03:02:08.629Z,5.75
2023-03-26T03:04:38.219Z,4.93
2023-03-26T03:07:05.993Z,6.82
2023-03-26T03:09:34.770Z,7.13
2023-03-26T03:12:21.143Z,6.35
2023-03-26T03:14:49.017Z,6.07
2023-03-26T03:17:16.739Z,5.35
2023-03-26T03:19:45.518Z,6.63
2023-03-26T03:22:13.435Z,6.13
2023-03-26T03:24:43.977Z,5.93
2023-03-26T03:27:12.845Z,6.63
2023-03-26T03:29:48.831Z,5.82
2023-03-26T03:32:42.545Z,7.60
2023-03-26T03:35:11.353Z,6.05
2023-03-26T03:37:40.706Z,7.82
2023-03-26T03:40:11.232Z,6.82
2023-03-26T03:42:39.940Z,7.28
2023-03-26T03:45:10.072Z,5.22
2023-03-26T03:47:59.364Z,5.10
2023-03-26T03:50:40.724Z,9.00
2023-03-26T03:53:26.698Z,5.88
2023-03-26T03:55:57.767Z,6.43
2023-03-26T03:58:38.858Z,5.43
2023-03-26T04:01:13.641Z,5.85
2023-03-26T04:03:57.583Z,5.47
2023-03-26T04:06:33.288Z,5.80
2023-03-26T04:09:01.234Z,6.82
2023-03-26T04:11:29.069Z,6.10
2023-03-26T04:14:17.265Z,6.97
2023-03-26T04:17:06.733Z,5.72
2023-03-26T04:19:38.024Z,5.97
2023-03-26T04:22:09.692Z,5.30
2023-03-26T04:24:49.065Z,5.15
2023-03-26T04:27:37.627Z,6.10
2023-03-26T04:30:20.983Z,10.77
2023-03-26T04:33:04.700Z,6.15
2023-03-26T04:35:35.711Z,5.30
2023-03-26T04:38:06.682Z,8.20
2023-03-26T04:40:40.022Z,6.85
2023-03-26T04:43:18.247Z,7.00
2023-03-26T04:46:04.639Z,7.93
2023-03-26T04:48:38.981Z,7.32
2023-03-26T04:51:18.160Z,6.80
2023-03-26T04:54:00.860Z,5.50
2023-03-26T04:56:53.032Z,6.35
2023-03-26T04:59:41.546Z,7.40
2023-03-26T05:02:13.388Z,4.95
2023-03-26T05:04:53.791Z,6.90
2023-03-26T05:07:24.305Z,5.28
2023-03-26T05:09:57.544Z,5.38
2023-03-26T05:12:54.816Z,5.43
2023-03-26T05:15:33.387Z,8.30
2023-03-26T05:18:33.626Z,6.20
2023-03-26T05:21:02.951Z,6.28
2023-03-26T05:23:32.032Z,5.32
2023-03-26T05:26:12.163Z,6.78
2023-03-26T05:28:39.926Z,6.03
2023-03-26T05:31:19.183Z,6.40
2023-03-26T05:33:49.694Z,5.97
2023-03-26T05:36:17.826Z,7.22
2023-03-26T05:38:52.372Z,7.57
2023-03-26T05:41:55.650Z,8.48
2023-03-26T05:44:30.002Z,5.20
2023-03-26T05:47:01.026Z,4.38
2023-03-26T05:49:29.914Z,6.55
2023-03-26T05:51:57.867Z,5.72
2023-03-26T05:54:35.940Z,7.57
2023-03-26T05:57:28.371Z,7.05
2023-03-26T06:00:15.310Z,8.60
2023-03-26T06:02:47.022Z,7.00
2023-03-26T06:05:53.394Z,6.70
2023-03-26T06:08:35.551Z,5.70
2023-03-26T06:11:08.383Z,6.82
2023-03-26T06:13:40.432Z,6.47
2023-03-26T06:16:09.518Z,7.55
2023-03-26T06:19:14.601Z,7.75
2023-03-26T06:22:11.077Z,9.63
2023-03-26T06:24:58.962Z,6.43
2023-03-26T06:27:50.571Z,6.00
2023-03-26T06:30:40.433Z,7.93
2023-03-26T06:33:26.693Z,7.40
2023-03-26T06:35:55.788Z,7.38
2023-03-26T06:38:24.988Z,9.20
2023-03-26T06:40:53.157Z,8.40
2023-03-26T06:43:27.024Z,9.20
2023-03-26T06:46:13.583Z,6.43
2023-03-26T06:48:53.854Z,7.20
2023-03-26T06:51:41.517Z,8.00
2023-03-26T06:54:10.533Z,6.20
2023-03-26T06:57:08.035Z,6.40
2023-03-26T07:00:09.041Z,5.55
2023-03-26T07:02:56.077Z,5.40
2023-03-26T07:06:03.248Z,6.50
2023-03-26T07:08:46.262Z,4.90
2023-03-26T07:11:40.388Z,8.27
2023-03-26T07:14:43.300Z,4.28
2023-03-26T07:17:31.817Z,4.35
2023-03-26T07:20:20.109Z,5.05
2023-03-26T07:22:48.985Z,4.90
2023-03-26T07:25:33.326Z,4.35
2023-03-26T07:28:32.787Z,16.23
2023-03-26T07:31:29.597Z,27.98
2023-03-26T07:34:37.200Z,17.77
2023-03-26T07:38:14.872Z,10.98
2023-03-26T07:41:18.394Z,7.65
2023-03-26T07:44:17.496Z,9.98
2023-03-26T07:46:48.142Z,6.22
2023-03-26T07:49:43.545Z,5.97
2023-03-26T07:52:32.808Z,9.05
2023-03-26T07:55:12.712Z,7.68
2023-03-26T07:58:58.908Z,5.63
2023-03-26T08:01:58.982Z,5.00
2023-03-26T08:04:49.524Z,7.63
2023-03-26T08:08:05.242Z,5.70
2023-03-26T08:10:43.241Z,3.10
2023-03-26T08:13:39.541Z,14.40
2023-03-26T08:16:11.466Z,17.17
2023-03-26T08:19:05.901Z,9.93
2023-03-26T08:21:45.352Z,9.95
2023-03-26T08:24:25.506Z,8.63
2023-03-26T08:26:57.799Z,10.65
2023-03-26T08:29:36.440Z,7.35
2023-03-26T08:32:05.588Z,9.88
2023-03-26T08:34:34.169Z,10.05
2023-03-26T08:37:02.766Z,9.25
2023-03-26T08:39:30.932Z,12.43
2023-03-26T08:42:34.738Z,8.20
2023-03-26T08:45:27.421Z,15.65
2023-03-26T08:48:13.372Z,10.80
2023-03-26T08:51:10.920Z,6.22
2023-03-26T08:54:00.047Z,7.03
2023-03-26T08:56:37.060Z,6.28
2023-03-26T08:59:47.364Z,6.80
2023-03-26T09:02:33.314Z,6.97
2023-03-26T09:05:25.705Z,12.68
2023-03-26T09:08:15.271Z,15.35
2023-03-26T09:10:53.099Z,15.32
2023-03-26T09:13:42.963Z,10.50
2023-03-26T09:16:35.306Z,7.10
2023-03-26T09:19:07.645Z,7.38
2023-03-26T09:22:01.787Z,7.85
2023-03-26T09:24:44.928Z,8.95
2023-03-26T09:27:31.907Z,8.70
2023-03-26T09:30:38.815Z,6.75
2023-03-26T09:33:54.119Z,7.25
2023-03-26T09:36:34.199Z,5.25
2023-03-26T09:39:02.435Z,3.38
2023-03-26T09:41:59.318Z,4.47
2023-03-26T09:44:52.430Z,4.90
2023-03-26T09:47:27.689Z,4.05
2023-03-26T09:50:26.556Z,4.88
2023-03-26T09:52:57.326Z,4.15
2023-03-26T09:55:47.494Z,5.25
2023-03-26T09:58:37.557Z,6.95
2023-03-26T10:01:25.395Z,5.25
2023-03-26T10:04:16.917Z,4.35
2023-03-26T10:06:51.694Z,6.53
2023-03-26T10:09:37.458Z,6.22
2023-03-26T10:12:34.039Z,4.45
2023-03-26T10:15:25.008Z,6.35
2023-03-26T10:18:27.937Z,7.70
2023-03-26T10:21:31.250Z,11.02
2023-03-26T10:24:13.560Z,4.32
2023-03-26T10:27:08.872Z,6.90
2023-03-26T10:29:58.490Z,5.72
2023-03-26T10:32:45.619Z,9.45
2023-03-26T10:35:47.564Z,7.18
2023-03-26T10:38:24.389Z,6.03
2023-03-26T10:41:29.761Z,7.68
2023-03-26T10:44:09.325Z,9.85
2023-03-26T10:46:56.251Z,9.90
2023-03-26T10:49:36.657Z,8.83
2023-03-26T10:52:16.466Z,13.73
2023-03-26T10:55:12.054Z,19.52
2023-03-26T10:58:06.063Z,18.92
2023-03-26T11:00:40.624Z,13.27
2023-03-26T11:03:28.233Z,12.55
2023-03-26T11:06:27.462Z,12.23
2023-03-26T11:09:38.316Z,17.30
2023-03-26T11:12:26.600Z,20.77
2023-03-26T11:15:01.744Z,19.60
2023-03-26T11:17:43.912Z,20.55
2023-03-26T11:20:24.641Z,22.25
2023-03-26T11:23:16.795Z,15.85
2023-03-26T11:26:23.776Z,9.85
2023-03-26T11:29:31.107Z,17.10
2023-03-26T11:32:13.447Z,29.15
2023-03-26T11:35:14.828Z,37.65
2023-03-26T11:37:46.589Z,38.70
2023-03-26T11:40:24.737Z,36.75
2023-03-26T11:42:59.226Z,23.25
2023-03-26T11:45:32.135Z,18.50
2023-03-26T11:48:26.168Z,14.48
2023-03-26T11:51:06.657Z,22.40
2023-03-26T11:53:40.090Z,20.33
2023-03-26T11:56:23.689Z,23.20
2023-03-26T11:59:21.208Z,21.55
2023-03-26T12:02:04.968Z,19.27
2023-03-26T12:04:40.872Z,17.45
2023-03-26T12:07:34.716Z,18.80
2023-03-26T12:10:18.223Z,17.17
2023-03-26T12:12:49.038Z,16.20
2023-03-26T12:15:22.548Z,20.52
2023-03-26T12:17:56.417Z,21.95
2023-03-26T12:20:25.157Z,18.83
2023-03-26T12:22:59.749Z,16.40
2023-03-26T12:25:37.585Z,15.07
2023-03-26T12:28:14.468Z,12.05
2023-03-26T12:31:11.531Z,13.57
2023-03-26T12:33:40.676Z,11.45
2023-03-26T12:36:21.060Z,8.52
2023-03-26T12:39:15.999Z,8.32
2023-03-26T12:44:44.988Z,9.43
2023-03-26T12:44:48.105Z,9.95
2023-03-26T12:47:59.726Z,8.80
2023-03-26T12:50:15.679Z,19.85
2023-03-26T12:53:08.146Z,16.50
2023-03-26T12:55:59.876Z,20.15
2023-03-26T12:58:51.436Z,11.52
2023-03-26T13:01:28.482Z,16.35
2023-03-26T13:04:34.413Z,12.53
2023-03-26T13:07:31.844Z,9.07
2023-03-26T13:10:30.684Z,10.60
2023-03-26T13:13:19.721Z,10.90
2023-03-26T13:15:56.520Z,11.70
2023-03-26T13:19:02.369Z,11.18
2023-03-26T13:22:01.741Z,8.00
2023-03-26T13:24:59.047Z,14.48
2023-03-26T13:27:45.087Z,24.02
2023-03-26T13:30:46.891Z,13.68
2023-03-26T13:33:27.073Z,6.80
2023-03-26T13:36:23.922Z,6.30
2023-03-26T13:39:10.778Z,6.40
2023-03-26T13:41:45.934Z,6.43
2023-03-26T13:44:34.830Z,5.50
2023-03-26T13:47:10.829Z,5.22
2023-03-26T13:49:44.470Z,4.68
2023-03-26T13:52:42.684Z,4.97
2023-03-26T13:55:19.708Z,7.55
2023-03-26T13:58:06.606Z,6.22
2023-03-26T14:00:59.152Z,8.55
2023-03-26T14:03:58.203Z,6.40
2023-03-26T14:06:42.518Z,6.47
2023-03-26T14:09:24.750Z,9.57
2023-03-26T14:11:58.800Z,8.38
2023-03-26T14:14:29.422Z,8.98
2023-03-26T14:17:02.433Z,7.15
2023-03-26T14:19:49.945Z,7.45
2023-03-26T14:22:28.621Z,9.02
2023-03-26T14:25:20.964Z,5.75
2023-03-26T14:27:55.072Z,5.95
2023-03-26T14:30:56.880Z,3.97
2023-03-26T14:33:53.333Z,5.45
2023-03-26T14:36:33.222Z,7.10
2023-03-26T14:39:40.131Z,10.70
2023-03-26T14:42:31.316Z,10.32
2023-03-26T14:45:17.710Z,8.60
2023-03-26T14:48:30.846Z,8.60
2023-03-26T14:51:28.510Z,7.07
2023-03-26T14:54:04.539Z,7.03
2023-03-26T14:56:57.339Z,8.03
2023-03-26T15:00:07.373Z,7.28
2023-03-26T15:03:08.814Z,6.28
2023-03-26T15:05:52.360Z,7.78
2023-03-26T15:08:41.833Z,7.18
2023-03-26T15:11:21.839Z,6.53
2023-03-26T15:14:28.192Z,8.65
2023-03-26T15:17:31.992Z,9.27
2023-03-26T15:20:52.033Z,10.88
2023-03-26T15:24:04.966Z,7.88
2023-03-26T15:26:37.295Z,7.65
2023-03-26T15:29:46.094Z,9.38
2023-03-26T15:35:22.056Z,8.35
2023-03-26T15:38:18.061Z,8.88
2023-03-26T15:40:54.509Z,8.60
2023-03-26T15:43:23.332Z,8.05
2023-03-26T15:46:32.556Z,14.85
2023-03-26T15:49:16.897Z,13.55
2023-03-26T15:52:12.773Z,7.35
2023-03-26T15:55:08.695Z,3.92
2023-03-26T15:58:16.790Z,12.00
2023-03-26T16:01:07.208Z,16.92
2023-03-26T16:03:50.328Z,11.80
2023-03-26T16:06:28.420Z,12.88
2023-03-26T16:09:21.168Z,9.60
2023-03-26T16:11:53.553Z,13.38
2023-03-26T16:14:35.187Z,12.27
2023-03-26T16:17:06.419Z,8.88
2023-03-26T16:19:56.646Z,8.73
2023-03-26T16:22:56.225Z,13.80
2023-03-26T16:25:30.451Z,11.43
2023-03-26T16:28:37.506Z,14.05
2023-03-26T16:31:37.280Z,13.35
2023-03-26T16:34:41.573Z,10.30
2023-03-26T16:37:37.246Z,21.92
2023-03-26T16:40:21.620Z,14.00
2023-03-26T16:43:03.176Z,13.45
2023-03-26T16:45:34.043Z,13.98
2023-03-26T16:48:45.100Z,12.57
2023-03-26T16:51:21.694Z,15.93
2023-03-26T16:53:58.268Z,11.43
2023-03-26T17:00:16.728Z,12.73
2023-03-26T17:03:15.581Z,10.93
2023-03-26T17:05:58.018Z,13.68
2023-03-26T17:08:37.764Z,12.20
2023-03-26T17:11:21.181Z,9.18
2023-03-26T17:14:03.948Z,12.48
2023-03-26T17:16:48.728Z,9.95
2023-03-26T17:19:39.567Z,12.13
2023-03-26T17:22:39.559Z,12.90
2023-03-26T17:28:18.454Z,11.23
2023-03-26T17:30:49.452Z,12.98
2023-03-26T17:33:31.707Z,16.02
2023-03-26T17:36:11.760Z,17.17
2023-03-26T17:38:39.574Z,8.40
2023-03-26T17:41:08.881Z,10.75
2023-03-26T17:43:45.710Z,10.18
2023-03-26T17:46:29.512Z,16.38
2023-03-26T17:49:17.639Z,19.90
2023-03-26T17:51:58.416Z,21.77
2023-03-26T17:54:31.169Z,19.73
2023-03-26T17:57:06.177Z,20.63
2023-03-26T17:59:38.134Z,19.83
2023-03-26T18:02:16.097Z,16.20
2023-03-26T18:04:48.493Z,14.43
2023-03-26T18:07:53.992Z,15.20
2023-03-26T18:10:22.632Z,11.25
2023-03-26T18:13:15.539Z,12.70
2023-03-26T18:16:01.394Z,13.85
2023-03-26T18:18:54.137Z,9.95
2023-03-26T18:21:35.159Z,12.05
2023-03-26T18:24:07.009Z,11.05
2023-03-26T18:26:47.334Z,9.68
2023-03-26T18:29:26.776Z,14.70
2023-03-26T18:32:02.753Z,16.70
2023-03-26T18:34:33.362Z,18.25
2023-03-26T18:37:19.155Z,18.35
2023-03-26T18:40:12.638Z,18.10
2023-03-26T18:42:43.488Z,19.85
2023-03-26T18:45:30.940Z,15.90
2023-03-26T18:48:02.568Z,15.45
2023-03-26T18:50:38.262Z,17.50
2023-03-26T18:53:13.901Z,19.13
2023-03-26T18:55:41.974Z,17.35
2023-03-26T18:58:30.254Z,16.13
2023-03-26T19:01:04.202Z,15.38
2023-03-26T19:03:35.790Z,21.58
2023-03-26T19:06:12.878Z,16.63
2023-03-26T19:08:44.817Z,16.33
2023-03-26T19:11:16.842Z,14.65
2023-03-26T19:13:50.184Z,19.20
2023-03-26T19:16:26.626Z,14.85
2023-03-26T19:19:06.959Z,18.23
2023-03-26T19:21:36.428Z,20.35
2023-03-26T19:24:05.808Z,19.83
2023-03-26T19:26:34.756Z,19.92
2023-03-26T19:29:03.533Z,24.42
2023-03-26T19:31:38.951Z,21.52
2023-03-26T19:34:17.610Z,21.45
2023-03-26T19:37:01.712Z,15.00
2023-03-26T19:39:44.472Z,16.42
2023-03-26T19:42:43.997Z,16.02
2023-03-26T19:45:22.875Z,17.27
2023-03-26T19:48:03.590Z,15.02
2023-03-26T19:50:46.991Z,13.02
2023-03-26T19:53:25.591Z,12.88
2023-03-26T19:56:10.150Z,12.00
2023-03-26T19:58:38.364Z,9.05
2023-03-26T20:01:07.061Z,7.30
2023-03-26T20:03:43.159Z,8.65
2023-03-26T20:06:13.979Z,8.87
2023-03-26T20:08:41.884Z,12.43
2023-03-26T20:11:23.358Z,10.10
2023-03-26T20:13:52.773Z,8.77
2023-03-26T20:16:26.797Z,7.25
2023-03-26T20:18:57.509Z,11.05
2023-03-26T20:21:26.103Z,7.25
2023-03-26T20:23:55.158Z,9.68
2023-03-26T20:26:24.240Z,8.43
2023-03-26T20:28:53.779Z,7.60
2023-03-26T20:31:28.257Z,10.18
2023-03-26T20:33:57.930Z,7.85
2023-03-26T20:36:34.342Z,8.30
2023-03-26T20:39:06.317Z,12.15
2023-03-26T20:41:35.191Z,12.82
2023-03-26T20:44:05.207Z,8.88
2023-03-26T20:46:33.541Z,8.02
2023-03-26T20:49:01.313Z,10.07
2023-03-26T20:51:29.401Z,10.70
2023-03-26T20:53:59.105Z,13.27
2023-03-26T20:56:27.339Z,9.23
2023-03-26T21:01:33.620Z,10.25
2023-03-26T21:04:04.526Z,8.05
2023-03-26T21:06:32.486Z,6.95
2023-03-26T21:09:00.593Z,4.78
2023-03-26T21:11:34.726Z,6.53
2023-03-26T21:14:25.625Z,9.52
2023-03-26T21:16:54.061Z,9.55
2023-03-26T21:19:22.437Z,6.68
2023-03-26T21:21:58.262Z,7.00
2023-03-26T21:24:35.834Z,10.27
2023-03-26T21:27:26.419Z,8.05
2023-03-26T21:29:55.581Z,6.57
2023-03-26T21:32:24.347Z,5.70
2023-03-26T21:34:58.969Z,5.68
2023-03-26T21:37:27.958Z,4.68
2023-03-26T21:39:56.211Z,7.43
2023-03-26T21:42:29.452Z,4.32
2023-03-26T21:44:58.676Z,4.20
2023-03-26T21:47:27.320Z,4.88
2023-03-26T21:49:56.410Z,4.75
2023-03-26T21:52:25.401Z,2.90
2023-03-26T21:54:53.699Z,5.22
2023-03-26T21:57:43.192Z,3.20
2023-03-26T22:00:23.757Z,3.75
2023-03-26T22:03:19.659Z,24.88
2023-03-26T22:06:16.131Z,19.60
2023-03-26T22:08:48.529Z,10.57
2023-03-26T22:11:16.727Z,8.02
2023-03-26T22:13:45.696Z,7.15
2023-03-26T22:16:17.248Z,7.68
2023-03-26T22:18:45.097Z,6.00
2023-03-26T22:21:14.543Z,4.85
2023-03-26T22:23:43.298Z,5.30
2023-03-26T22:26:11.391Z,5.10
2023-03-26T22:28:39.100Z,5.82
2023-03-26T22:31:09.101Z,4.93
2023-03-26T22:33:38.248Z,3.22
2023-03-26T22:36:22.204Z,4.35
2023-03-26T22:38:54.912Z,7.07
2023-03-26T22:41:23.660Z,4.00
2023-03-26T22:43:55.935Z,6.25
2023-03-26T22:46:26.845Z,3.90
2023-03-26T22:48:55.999Z,4.57
2023-03-26T22:51:24.035Z,4.55
2023-03-26T22:53:52.264Z,4.65
2023-03-26T22:56:20.612Z,5.32
2023-03-26T22:58:48.998Z,4.72
2023-03-26T23:01:20.945Z,4.38
2023-03-26T23:03:49.242Z,2.88
2023-03-26T23:06:17.368Z,5.90
2023-03-26T23:08:45.168Z,3.92
2023-03-26T23:11:17.173Z,4.85
2023-03-26T23:13:46.597Z,3.72
2023-03-26T23:16:15.838Z,3.38
2023-03-26T23:18:44.332Z,3.88
2023-03-26T23:21:21.091Z,5.25
2023-03-26T23:23:50.155Z,5.15
2023-03-26T23:26:18.294Z,4.63
2023-03-26T23:28:46.227Z,4.80
2023-03-26T23:31:14.420Z,3.38
2023-03-26T23:33:51.372Z,2.67
2023-03-26T23:36:20.733Z,3.72
2023-03-26T23:38:49.094Z,3.15
2023-03-26T23:41:19.452Z,4.18
2023-03-26T23:43:55.714Z,2.92
2023-03-26T23:46:35.210Z,4.00
2023-03-26T23:49:03.904Z,4.35
2023-03-26T23:51:32.764Z,2.28
2023-03-26T23:54:01.673Z,3.05
2023-03-26T23:56:32.703Z,3.58
2023-03-26T23:59:00.939Z,2.10
